Time;durP1;ratioP1;P1;durP2;ratioP2;P2;SDS_P1;SDS_P2;PMS_P1;PMS_P2;Temp;Humidity;BMP_temperature;BMP_pressure;BME280_temperature;BME280_humidity;BME280_pressure;Samples;Min_cycle;Max_cycle;Signal;HPM_P1;HPM_P2
2022/07/03 00:01:34;;;;;;;2.38;2.22;;;;;;;;;;5055059;28;20486;-87
2022/07/03 00:04:01;;;;;;;2.47;2.38;;;;;;;;;;5054960;28;20056;-87
2022/07/03 00:06:30;;;;;;;3.63;2.20;;;;;;;;;;5053857;28;20584;-87
2022/07/03 00:08:58;;;;;;;2.63;2.42;;;;;;;;;;5053609;28;20081;-88
2022/07/03 00:11:26;;;;;;;2.28;2.15;;;;;;;;;;5053489;28;20504;-88
2022/07/03 00:13:53;;;;;;;3.05;2.28;;;;;;;;;;5053738;28;20044;-88
2022/07/03 00:16:20;;;;;;;2.88;2.67;;;;;;;;;;5053572;28;20045;-87
2022/07/03 00:18:47;;;;;;;3.80;2.55;;;;;;;;;;5053491;28;20056;-88
2022/07/03 00:21:17;;;;;;;3.88;2.55;;;;;;;;;;5054367;28;20106;-88
2022/07/03 00:23:46;;;;;;;4.90;2.83;;;;;;;;;;5053381;28;20076;-87
2022/07/03 00:26:14;;;;;;;3.05;2.40;;;;;;;;;;5054215;28;20080;-88
2022/07/03 00:28:42;;;;;;;2.58;2.47;;;;;;;;;;5053531;28;20072;-88
2022/07/03 00:31:10;;;;;;;2.75;2.55;;;;;;;;;;5053584;28;20084;-88
2022/07/03 00:33:37;;;;;;;3.05;2.90;;;;;;;;;;5054622;28;20060;-87
2022/07/03 00:36:04;;;;;;;4.78;2.60;;;;;;;;;;5053065;28;20413;-87
2022/07/03 00:38:31;;;;;;;3.22;2.75;;;;;;;;;;5052327;28;20052;-88
2022/07/03 00:40:59;;;;;;;3.20;2.90;;;;;;;;;;5054562;28;20064;-88
2022/07/03 00:43:27;;;;;;;3.60;3.13;;;;;;;;;;5053387;28;20127;-88
2022/07/03 00:45:54;;;;;;;3.50;3.00;;;;;;;;;;5053105;28;20132;-88
2022/07/03 00:48:22;;;;;;;3.65;2.75;;;;;;;;;;5053277;28;20088;-87
2022/07/03 00:50:50;;;;;;;3.30;3.00;;;;;;;;;;5052996;28;20053;-87
2022/07/03 00:53:28;;;;;;;3.00;2.90;;;;;;;;;;5053025;28;20088;-88
2022/07/03 00:55:56;;;;;;;3.28;2.83;;;;;;;;;;5052784;28;20128;-88
2022/07/03 00:58:23;;;;;;;3.97;3.05;;;;;;;;;;5052820;28;20055;-87
2022/07/03 01:00:52;;;;;;;3.80;3.60;;;;;;;;;;5054068;28;20232;-88
2022/07/03 01:03:20;;;;;;;4.57;3.03;;;;;;;;;;5052618;28;20053;-87
2022/07/03 01:05:53;;;;;;;3.00;2.80;;;;;;;;;;5052484;28;20064;-88
2022/07/03 01:08:31;;;;;;;6.03;3.25;;;;;;;;;;5052692;28;20049;-87
2022/07/03 01:11:15;;;;;;;4.25;3.10;;;;;;;;;;5053648;28;20076;-88
2022/07/03 01:13:42;;;;;;;3.60;3.30;;;;;;;;;;5052491;28;20076;-87
2022/07/03 01:16:27;;;;;;;6.30;3.03;;;;;;;;;;5052128;28;20089;-87
2022/07/03 01:18:58;;;;;;;3.85;3.50;;;;;;;;;;5052850;28;20052;-87
2022/07/03 01:21:45;;;;;;;3.55;2.80;;;;;;;;;;5053597;28;20485;-87
2022/07/03 01:24:22;;;;;;;4.22;3.30;;;;;;;;;;5053074;28;20099;-87
2022/07/03 01:26:51;;;;;;;3.70;3.50;;;;;;;;;;5052621;28;20091;-87
2022/07/03 01:29:22;;;;;;;8.30;3.25;;;;;;;;;;5052387;28;20414;-88
2022/07/03 01:31:52;;;;;;;3.78;3.58;;;;;;;;;;5052671;28;20100;-88
2022/07/03 01:34:19;;;;;;;3.25;3.05;;;;;;;;;;5052166;28;20049;-88
2022/07/03 01:36:48;;;;;;;3.08;2.95;;;;;;;;;;5051970;28;20051;-88
2022/07/03 01:39:16;;;;;;;3.58;3.28;;;;;;;;;;5051872;28;20155;-88
2022/07/03 01:42:04;;;;;;;3.40;3.20;;;;;;;;;;5052330;28;20044;-87
2022/07/03 01:44:32;;;;;;;3.58;3.38;;;;;;;;;;5053346;28;20053;-87
2022/07/03 01:47:00;;;;;;;4.00;3.70;;;;;;;;;;5051758;28;20059;-88
2022/07/03 01:49:27;;;;;;;4.00;3.70;;;;;;;;;;5051497;28;20489;-88
2022/07/03 01:51:56;;;;;;;3.80;3.55;;;;;;;;;;5053368;28;20413;-87
2022/07/03 01:54:25;;;;;;;3.35;3.25;;;;;;;;;;5052133;28;20130;-86
2022/07/03 01:56:54;;;;;;;4.35;4.10;;;;;;;;;;5052159;28;20080;-87
2022/07/03 01:59:21;;;;;;;4.35;3.72;;;;;;;;;;5052003;28;20072;-88
2022/07/03 02:01:48;;;;;;;3.60;3.40;;;;;;;;;;5052731;28;20113;-88
2022/07/03 02:04:19;;;;;;;4.18;3.42;;;;;;;;;;5051804;28;20059;-88
2022/07/03 02:06:58;;;;;;;3.63;3.42;;;;;;;;;;5052070;28;20545;-87
2022/07/03 02:09:33;;;;;;;5.13;3.70;;;;;;;;;;5051919;28;20469;-87
2022/07/03 02:12:00;;;;;;;3.92;3.63;;;;;;;;;;5051919;28;20103;-88
2022/07/03 02:14:36;;;;;;;5.70;3.83;;;;;;;;;;5051972;28;20498;-88
2022/07/03 02:17:10;;;;;;;4.07;3.83;;;;;;;;;;5052043;28;20080;-88
2022/07/03 02:19:43;;;;;;;4.10;3.70;;;;;;;;;;5053055;28;20080;-88
2022/07/03 02:22:10;;;;;;;;;;;;;;;;;;5053298;28;20045;-88
2022/07/03 02:24:45;;;;;;;5.38;3.17;;;;;;;;;;5052696;28;19964;-88
2022/07/03 02:27:32;;;;;;;4.32;3.72;;;;;;;;;;5051764;28;20466;-88
2022/07/03 02:30:03;;;;;;;4.10;3.80;;;;;;;;;;5052954;28;20076;-87
2022/07/03 02:32:32;;;;;;;4.20;3.92;;;;;;;;;;5052062;28;20045;-87
2022/07/03 02:35:05;;;;;;;3.95;3.72;;;;;;;;;;5051285;28;20045;-86
2022/07/03 02:37:35;;;;;;;4.17;3.97;;;;;;;;;;5051959;28;20126;-87
2022/07/03 02:40:05;;;;;;;3.95;3.75;;;;;;;;;;5051334;28;20084;-88
2022/07/03 02:42:39;;;;;;;3.80;3.50;;;;;;;;;;5052013;28;20083;-87
2022/07/03 02:45:10;;;;;;;4.35;4.00;;;;;;;;;;5052021;28;20056;-88
2022/07/03 02:47:44;;;;;;;8.95;4.28;;;;;;;;;;5052652;28;20079;-88
2022/07/03 02:50:13;;;;;;;6.50;4.38;;;;;;;;;;5052031;28;20048;-88
2022/07/03 02:52:44;;;;;;;4.70;3.92;;;;;;;;;;5052638;28;20052;-87
2022/07/03 02:55:11;;;;;;;3.88;3.67;;;;;;;;;;5051697;28;20049;-88
2022/07/03 02:57:43;;;;;;;3.95;3.65;;;;;;;;;;5051723;28;20041;-88
2022/07/03 03:00:11;;;;;;;5.65;4.18;;;;;;;;;;5051256;28;20080;-88
2022/07/03 03:02:58;;;;;;;6.20;4.65;;;;;;;;;;5054931;28;20080;-88
2022/07/03 03:05:31;;;;;;;4.75;4.38;;;;;;;;;;5055020;28;20068;-88
2022/07/03 03:08:08;;;;;;;4.20;3.90;;;;;;;;;;5055982;28;20243;-88
2022/07/03 03:10:39;;;;;;;5.10;3.97;;;;;;;;;;5054626;28;20346;-88
2022/07/03 03:13:08;;;;;;;4.90;4.00;;;;;;;;;;5055954;28;20095;-87
2022/07/03 03:15:36;;;;;;;5.03;4.63;;;;;;;;;;5054409;28;20080;-87
2022/07/03 03:18:04;;;;;;;4.32;4.03;;;;;;;;;;5055815;28;20048;-88
2022/07/03 03:20:33;;;;;;;4.65;4.28;;;;;;;;;;5054722;28;20080;-87
2022/07/03 03:23:18;;;;;;;4.80;4.22;;;;;;;;;;5054422;28;20519;-88
2022/07/03 03:25:45;;;;;;;5.13;4.07;;;;;;;;;;5055567;28;20091;-88
2022/07/03 03:28:13;;;;;;;5.47;4.80;;;;;;;;;;5054672;28;20053;-87
2022/07/03 03:30:41;;;;;;;5.30;4.80;;;;;;;;;;5054682;28;20073;-87
2022/07/03 03:33:09;;;;;;;4.85;4.32;;;;;;;;;;5054333;28;20570;-88
2022/07/03 03:35:37;;;;;;;4.97;4.68;;;;;;;;;;5054409;28;20056;-87
2022/07/03 03:38:04;;;;;;;4.97;4.40;;;;;;;;;;5055269;28;20080;-88
2022/07/03 03:40:32;;;;;;;6.90;4.38;;;;;;;;;;5055475;28;20076;-88
2022/07/03 03:42:59;;;;;;;5.75;5.10;;;;;;;;;;5054604;28;20081;-88
2022/07/03 03:45:27;;;;;;;6.15;5.13;;;;;;;;;;5054153;28;20505;-87
2022/07/03 03:47:55;;;;;;;8.05;6.15;;;;;;;;;;5055153;28;20080;-88
2022/07/03 03:50:22;;;;;;;13.57;9.07;;;;;;;;;;5054258;28;20087;-87
2022/07/03 03:52:49;;;;;;;15.80;10.65;;;;;;;;;;5054620;28;20083;-88
2022/07/03 03:55:16;;;;;;;10.80;9.55;;;;;;;;;;5054348;28;20076;-89
2022/07/03 03:57:44;;;;;;;13.10;10.30;;;;;;;;;;5054332;28;20103;-88
2022/07/03 04:00:11;;;;;;;10.07;9.02;;;;;;;;;;5054118;28;20067;-87
2022/07/03 04:02:38;;;;;;;10.77;6.05;;;;;;;;;;5053865;28;20076;-88
2022/07/03 04:05:06;;;;;;;5.40;5.00;;;;;;;;;;5054285;28;20053;-87
2022/07/03 04:07:33;;;;;;;4.97;4.57;;;;;;;;;;5053798;28;20532;-86
2022/07/03 04:10:00;;;;;;;4.88;4.32;;;;;;;;;;5053550;28;20053;-87
2022/07/03 04:12:27;;;;;;;5.43;5.03;;;;;;;;;;5054574;28;20044;-88
2022/07/03 04:14:57;;;;;;;4.88;4.57;;;;;;;;;;5053480;28;20064;-86
2022/07/03 04:17:24;;;;;;;5.25;4.85;;;;;;;;;;5054872;28;20551;-87
2022/07/03 04:19:51;;;;;;;4.82;4.40;;;;;;;;;;5054845;28;20103;-88
2022/07/03 04:22:19;;;;;;;4.80;4.50;;;;;;;;;;5053666;28;20132;-88
2022/07/03 04:24:46;;;;;;;5.07;4.78;;;;;;;;;;5053705;28;20076;-88
2022/07/03 04:27:13;;;;;;;4.90;4.60;;;;;;;;;;5053706;28;20498;-88
2022/07/03 04:29:40;;;;;;;6.15;4.20;;;;;;;;;;5053461;28;20132;-88
2022/07/03 04:32:09;;;;;;;4.72;4.43;;;;;;;;;;5053581;28;20053;-88
2022/07/03 04:34:37;;;;;;;4.85;4.35;;;;;;;;;;5054327;28;20045;-88
2022/07/03 04:37:04;;;;;;;4.40;4.00;;;;;;;;;;5053427;28;20049;-87
2022/07/03 04:39:31;;;;;;;4.55;4.15;;;;;;;;;;5053375;28;20052;-87
2022/07/03 04:41:58;;;;;;;6.60;4.32;;;;;;;;;;5053505;28;20053;-87
2022/07/03 04:44:26;;;;;;;5.43;5.05;;;;;;;;;;5053194;28;20409;-87
2022/07/03 04:46:53;;;;;;;4.03;3.72;;;;;;;;;;5053323;28;20501;-87
2022/07/03 04:49:20;;;;;;;3.63;3.38;;;;;;;;;;5053241;28;20084;-88
2022/07/03 04:51:47;;;;;;;3.95;3.75;;;;;;;;;;5053308;28;20079;-87
2022/07/03 04:54:15;;;;;;;3.15;3.05;;;;;;;;;;5054209;28;20413;-88
2022/07/03 04:56:42;;;;;;;3.30;3.00;;;;;;;;;;5052998;28;20076;-88
2022/07/03 04:59:09;;;;;;;3.00;2.80;;;;;;;;;;5053944;28;20474;-87
2022/07/03 05:01:36;;;;;;;3.10;2.83;;;;;;;;;;5053075;28;20391;-88
2022/07/03 05:04:04;;;;;;;7.13;2.70;;;;;;;;;;5053985;28;20049;-88
2022/07/03 05:06:31;;;;;;;2.53;2.42;;;;;;;;;;5053112;28;20044;-88
2022/07/03 05:08:58;;;;;;;2.67;2.10;;;;;;;;;;5053381;28;20045;-87
2022/07/03 05:11:25;;;;;;;2.72;2.35;;;;;;;;;;5052867;28;20080;-87
2022/07/03 05:13:52;;;;;;;3.80;2.17;;;;;;;;;;5053143;28;20107;-87
2022/07/03 05:16:19;;;;;;;1.95;1.85;;;;;;;;;;5052927;28;20073;-88
2022/07/03 05:18:46;;;;;;;4.20;1.95;;;;;;;;;;5053675;28;20445;-88
2022/07/03 05:21:14;;;;;;;1.70;1.60;;;;;;;;;;5052659;28;20073;-88
2022/07/03 05:23:41;;;;;;;2.15;1.50;;;;;;;;;;5053109;28;20548;-87
2022/07/03 05:26:08;;;;;;;1.52;1.40;;;;;;;;;;5051961;28;20045;-86
2022/07/03 05:28:35;;;;;;;1.05;1.05;;;;;;;;;;5052761;28;20065;-88
2022/07/03 05:31:02;;;;;;;1.13;1.05;;;;;;;;;;5052551;28;20144;-87
2022/07/03 05:33:30;;;;;;;2.88;1.20;;;;;;;;;;5053819;28;20088;-88
2022/07/03 05:35:57;;;;;;;2.58;1.17;;;;;;;;;;5052240;28;20072;-88
2022/07/03 05:41:10;;;;;;;1.10;1.10;;;;;;;;;;5053368;28;20052;-88
2022/07/03 05:43:38;;;;;;;0.90;0.90;;;;;;;;;;5053427;28;20044;-88
2022/07/03 05:46:05;;;;;;;2.60;1.02;;;;;;;;;;5053152;28;20131;-89
2022/07/03 05:48:32;;;;;;;1.48;1.10;;;;;;;;;;5052490;28;20056;-89
2022/07/03 05:51:00;;;;;;;2.63;1.20;;;;;;;;;;5052216;28;20107;-89
2022/07/03 05:53:27;;;;;;;1.13;1.02;;;;;;;;;;5053257;28;20072;-88
2022/07/03 05:55:54;;;;;;;1.10;1.10;;;;;;;;;;5053077;28;20557;-86
2022/07/03 05:58:21;;;;;;;3.72;0.95;;;;;;;;;;5050463;28;20085;-88
2022/07/03 06:00:48;;;;;;;1.40;0.98;;;;;;;;;;5053253;28;20418;-89
2022/07/03 06:03:16;;;;;;;1.13;1.00;;;;;;;;;;5053082;28;20080;-88
2022/07/03 06:05:43;;;;;;;0.90;0.90;;;;;;;;;;5051995;28;20132;-88
2022/07/03 06:08:11;;;;;;;0.88;0.88;;;;;;;;;;5051572;28;20059;-88
2022/07/03 06:10:38;;;;;;;3.40;1.00;;;;;;;;;;5051918;28;20053;-88
2022/07/03 06:13:05;;;;;;;1.08;1.08;;;;;;;;;;5052319;28;20068;-88
2022/07/03 06:15:32;;;;;;;1.48;1.15;;;;;;;;;;5052043;28;20077;-88
2022/07/03 06:17:59;;;;;;;3.13;1.00;;;;;;;;;;5052102;28;20516;-89
2022/07/03 06:20:26;;;;;;;2.60;1.00;;;;;;;;;;5052560;28;20465;-90
2022/07/03 06:22:54;;;;;;;5.78;1.50;;;;;;;;;;5051860;28;20132;-88
2022/07/03 06:25:21;;;;;;;2.75;1.80;;;;;;;;;;5052982;28;20084;-88
2022/07/03 06:27:48;;;;;;;5.68;1.50;;;;;;;;;;5051942;28;20076;-89
2022/07/03 06:30:15;;;;;;;5.80;1.20;;;;;;;;;;5051988;28;20536;-88
2022/07/03 06:32:42;;;;;;;1.92;0.73;;;;;;;;;;5053086;28;20108;-88
2022/07/03 06:35:09;;;;;;;5.20;1.13;;;;;;;;;;5052746;28;20079;-89
2022/07/03 06:37:37;;;;;;;8.30;1.52;;;;;;;;;;5056436;28;20048;-89
2022/07/03 06:40:04;;;;;;;4.10;1.15;;;;;;;;;;5055467;28;20072;-89
2022/07/03 06:42:31;;;;;;;2.92;1.30;;;;;;;;;;5057058;28;20076;-89
2022/07/03 06:44:58;;;;;;;1.10;1.00;;;;;;;;;;5055711;28;20079;-88
2022/07/03 06:47:26;;;;;;;0.98;0.90;;;;;;;;;;5055689;28;20052;-89
2022/07/03 06:49:53;;;;;;;0.60;0.60;;;;;;;;;;5055422;28;20489;-89
2022/07/03 06:52:20;;;;;;;2.25;1.05;;;;;;;;;;5055744;28;20088;-90
2022/07/03 06:54:47;;;;;;;3.58;3.28;;;;;;;;;;5056574;28;20045;-89
2022/07/03 06:57:14;;;;;;;7.88;2.95;;;;;;;;;;5055646;28;20053;-90
2022/07/03 06:59:42;;;;;;;6.95;5.10;;;;;;;;;;5055745;28;20049;-89
2022/07/03 07:02:10;;;;;;;4.90;4.60;;;;;;;;;;5055227;28;20548;-89
2022/07/03 07:04:37;;;;;;;4.45;4.05;;;;;;;;;;5055214;28;20080;-91
2022/07/03 07:07:04;;;;;;;1.58;0.90;;;;;;;;;;5054956;28;20095;-91
2022/07/03 07:09:31;;;;;;;1.45;0.80;;;;;;;;;;5056142;28;20131;-90
2022/07/03 07:11:58;;;;;;;0.82;0.65;;;;;;;;;;5056328;28;20080;-91
2022/07/03 07:14:26;;;;;;;2.85;0.80;;;;;;;;;;5056180;28;20467;-90
2022/07/03 07:16:53;;;;;;;1.05;0.95;;;;;;;;;;5055116;28;20056;-89
2022/07/03 07:19:20;;;;;;;0.77;0.77;;;;;;;;;;5055957;28;20099;-90
2022/07/03 07:21:48;;;;;;;1.58;0.70;;;;;;;;;;5055271;28;20088;-89
2022/07/03 07:24:15;;;;;;;0.70;0.70;;;;;;;;;;5054750;28;20144;-91
2022/07/03 07:26:42;;;;;;;0.75;0.65;;;;;;;;;;5054886;28;20076;-91
2022/07/03 07:29:09;;;;;;;4.35;3.70;;;;;;;;;;5055020;28;20562;-90
2022/07/03 07:31:36;;;;;;;1.00;1.00;;;;;;;;;;5054745;28;20052;-93
2022/07/03 07:34:04;;;;;;;1.85;0.80;;;;;;;;;;5054787;28;20072;-91
2022/07/03 07:36:32;;;;;;;0.93;0.63;;;;;;;;;;5054730;28;20052;-91
2022/07/03 07:38:59;;;;;;;0.80;0.73;;;;;;;;;;5055318;28;20084;-92
2022/07/03 07:41:26;;;;;;;3.20;0.80;;;;;;;;;;5055543;28;20077;-92
2022/07/03 07:43:53;;;;;;;2.95;0.60;;;;;;;;;;5054535;28;20071;-91
2022/07/03 07:46:21;;;;;;;0.52;0.40;;;;;;;;;;5053794;28;20076;-92
2022/07/03 07:48:48;;;;;;;1.75;0.70;;;;;;;;;;5054516;28;20055;-92
2022/07/03 07:51:16;;;;;;;0.63;0.60;;;;;;;;;;5054481;28;20536;-91
2022/07/03 07:53:44;;;;;;;0.73;0.43;;;;;;;;;;5054490;28;20056;-91
2022/07/03 07:56:12;;;;;;;1.48;1.00;;;;;;;;;;5054299;28;20494;-91
2022/07/03 07:58:40;;;;;;;1.60;0.90;;;;;;;;;;5054218;28;20084;-94
2022/07/03 08:06:39;;;;;;;1.00;0.60;;;;;;;;;;5055551;28;20049;-91
2022/07/03 08:09:07;;;;;;;1.17;0.55;;;;;;;;;;5054835;28;20045;-92
2022/07/03 08:11:34;;;;;;;1.23;0.50;;;;;;;;;;5054359;28;20512;-89
2022/07/03 08:14:01;;;;;;;1.10;0.60;;;;;;;;;;5054369;28;20052;-90
2022/07/03 08:16:28;;;;;;;2.80;0.80;;;;;;;;;;5054317;28;20069;-92
2022/07/03 08:18:55;;;;;;;0.50;0.50;;;;;;;;;;5054311;28;20057;-91
2022/07/03 08:21:23;;;;;;;2.95;0.50;;;;;;;;;;5053928;28;20083;-92
2022/07/03 08:23:50;;;;;;;0.30;0.30;;;;;;;;;;5053873;28;20083;-92
2022/07/03 08:26:17;;;;;;;1.27;0.50;;;;;;;;;;5053757;28;20076;-93
2022/07/03 08:28:44;;;;;;;1.02;0.93;;;;;;;;;;5053716;28;20140;-92
2022/07/03 08:31:11;;;;;;;0.40;0.40;;;;;;;;;;5053872;28;20080;-90
2022/07/03 08:33:39;;;;;;;0.40;0.40;;;;;;;;;;5054937;28;20049;-93
2022/07/03 08:36:06;;;;;;;0.40;0.40;;;;;;;;;;5053293;28;20049;-94
2022/07/03 08:38:34;;;;;;;2.05;0.38;;;;;;;;;;5053283;28;20084;-90
2022/07/03 08:41:03;;;;;;;0.50;0.40;;;;;;;;;;5053808;28;20045;-91
2022/07/03 08:43:30;;;;;;;0.65;0.40;;;;;;;;;;5058117;28;20088;-92
2022/07/03 08:45:58;;;;;;;0.30;0.30;;;;;;;;;;5057048;28;20049;-91
2022/07/03 08:48:28;;;;;;;0.52;0.52;;;;;;;;;;5053314;28;20057;-91
2022/07/03 08:50:56;;;;;;;0.32;0.32;;;;;;;;;;5053296;28;20064;-92
2022/07/03 08:53:24;;;;;;;1.58;0.40;;;;;;;;;;5053492;28;20056;-92
2022/07/03 08:55:52;;;;;;;0.40;0.40;;;;;;;;;;5053359;28;20048;-92
2022/07/03 08:58:22;;;;;;;1.77;0.40;;;;;;;;;;5052592;28;20079;-92
2022/07/03 09:00:50;;;;;;;1.02;0.50;;;;;;;;;;5053443;28;20041;-91
2022/07/03 09:03:17;;;;;;;0.40;0.40;;;;;;;;;;5053376;28;20437;-95
2022/07/03 09:05:45;;;;;;;0.68;0.55;;;;;;;;;;5053547;28;20048;-94
2022/07/03 09:08:13;;;;;;;3.08;0.70;;;;;;;;;;5053701;28;20164;-90
2022/07/03 09:10:40;;;;;;;2.95;0.80;;;;;;;;;;5053794;28;20079;-91
2022/07/03 09:13:07;;;;;;;3.55;0.57;;;;;;;;;;5054093;28;20053;-92
2022/07/03 09:15:35;;;;;;;1.10;0.40;;;;;;;;;;5053327;28;20466;-93
2022/07/03 09:18:04;;;;;;;2.40;0.70;;;;;;;;;;5053171;28;20056;-92
2022/07/03 09:20:32;;;;;;;1.95;0.50;;;;;;;;;;5052967;28;20080;-93
2022/07/03 09:23:29;;;;;;;1.98;0.40;;;;;;;;;;5054183;28;20549;-91
2022/07/03 09:25:58;;;;;;;0.40;0.40;;;;;;;;;;5022027;28;20080;-91
2022/07/03 09:28:44;;;;;;;0.30;0.30;;;;;;;;;;5053602;28;20107;-96
2022/07/03 09:31:12;;;;;;;1.45;0.30;;;;;;;;;;5054307;28;20053;-94
2022/07/03 09:33:54;;;;;;;10.90;1.30;;;;;;;;;;5053336;28;20144;-89
2022/07/03 09:36:21;;;;;;;10.30;1.42;;;;;;;;;;5052755;28;20080;-93
2022/07/03 09:38:49;;;;;;;0.50;0.40;;;;;;;;;;5052165;28;20056;-89
2022/07/03 09:41:16;;;;;;;0.38;0.38;;;;;;;;;;5053416;28;20068;-91
2022/07/03 09:43:44;;;;;;;0.30;0.30;;;;;;;;;;5054143;28;20084;-91
2022/07/03 09:46:12;;;;;;;0.22;0.22;;;;;;;;;;5053428;28;20083;-96
2022/07/03 09:48:43;;;;;;;0.75;0.40;;;;;;;;;;5053248;28;20140;-94
2022/07/03 09:51:12;;;;;;;0.30;0.30;;;;;;;;;;5054425;28;20564;-86
2022/07/03 09:53:53;;;;;;;0.55;0.43;;;;;;;;;;5053808;28;20084;-92
2022/07/03 09:56:25;;;;;;;0.50;0.40;;;;;;;;;;5052621;28;20064;-90
2022/07/03 09:59:09;;;;;;;1.95;0.28;;;;;;;;;;5052915;28;20136;-93
2022/07/03 10:01:46;;;;;;;1.10;0.50;;;;;;;;;;5053001;28;20148;-95
2022/07/03 10:04:28;;;;;;;0.65;0.22;;;;;;;;;;5055121;28;20075;-93
2022/07/03 10:06:55;;;;;;;2.17;0.30;;;;;;;;;;5047580;28;20087;-92
2022/07/03 10:09:32;;;;;;;0.55;0.20;;;;;;;;;;5053269;28;20080;-91
2022/07/03 10:12:00;;;;;;;2.90;1.30;;;;;;;;;;5058080;28;20053;-91
2022/07/03 10:14:29;;;;;;;0.45;0.30;;;;;;;;;;5061315;28;20053;-94
2022/07/03 10:17:01;;;;;;;0.30;0.30;;;;;;;;;;5058869;28;20461;-87
2022/07/03 10:19:38;;;;;;;3.60;0.60;;;;;;;;;;5056911;28;20099;-91
2022/07/03 10:22:08;;;;;;;0.80;0.40;;;;;;;;;;5057182;28;20052;-94
2022/07/03 10:24:36;;;;;;;0.60;0.60;;;;;;;;;;5056819;28;20497;-89
2022/07/03 10:27:03;;;;;;;0.60;0.60;;;;;;;;;;5058247;28;20084;-94
2022/07/03 10:29:30;;;;;;;0.32;0.30;;;;;;;;;;5056689;28;20076;-92
2022/07/03 10:31:58;;;;;;;0.85;0.40;;;;;;;;;;5056925;28;20076;-94
2022/07/03 10:34:26;;;;;;;0.30;0.30;;;;;;;;;;5057497;28;20107;-93
2022/07/03 10:37:01;;;;;;;2.45;0.40;;;;;;;;;;5039623;28;20401;-93
2022/07/03 10:39:47;;;;;;;0.63;0.40;;;;;;;;;;5056401;28;20057;-92
2022/07/03 10:45:07;;;;;;;0.52;0.30;;;;;;;;;;5051722;28;20473;-92
2022/07/03 10:47:45;;;;;;;9.77;2.80;;;;;;;;;;5059022;28;20092;-92
2022/07/03 10:50:32;;;;;;;5.95;1.20;;;;;;;;;;5056533;28;20077;-93
2022/07/03 10:53:19;;;;;;;1.85;0.55;;;;;;;;;;5056814;28;20087;-90
2022/07/03 10:56:03;;;;;;;0.65;0.35;;;;;;;;;;5055113;28;20052;-92
2022/07/03 10:58:30;;;;;;;0.82;0.40;;;;;;;;;;5056169;28;20127;-93
2022/07/03 11:01:00;;;;;;;1.75;0.40;;;;;;;;;;5056840;28;20489;-89
2022/07/03 11:03:57;;;;;;;1.40;0.38;;;;;;;;;;5056503;28;20070;-92
2022/07/03 11:06:43;;;;;;;0.40;0.30;;;;;;;;;;5034602;28;20052;-93
2022/07/03 11:09:14;;;;;;;0.40;0.20;;;;;;;;;;5057889;28;20204;-91
2022/07/03 11:11:57;;;;;;;0.82;0.50;;;;;;;;;;5057107;28;20041;-96
2022/07/03 11:14:25;;;;;;;0.40;0.30;;;;;;;;;;5057201;28;20139;-94
2022/07/03 11:17:12;;;;;;;0.38;0.30;;;;;;;;;;5057003;28;20291;-92
2022/07/03 11:19:40;;;;;;;0.40;0.40;;;;;;;;;;5039725;28;20458;-90
2022/07/03 11:22:11;;;;;;;2.15;0.40;;;;;;;;;;5055495;28;20068;-93
2022/07/03 11:24:42;;;;;;;0.40;0.40;;;;;;;;;;5057695;28;20076;-92
2022/07/03 11:27:14;;;;;;;4.97;1.20;;;;;;;;;;5054755;28;20061;-87
2022/07/03 11:29:41;;;;;;;0.80;0.57;;;;;;;;;;5055743;28;20056;-93
2022/07/03 11:32:28;;;;;;;2.42;0.90;;;;;;;;;;5056446;28;20053;-93
2022/07/03 11:34:55;;;;;;;3.40;0.85;;;;;;;;;;5055013;28;20053;-86
2022/07/03 11:37:23;;;;;;;5.03;0.90;;;;;;;;;;5056136;28;20512;-93
2022/07/03 11:39:51;;;;;;;1.88;0.80;;;;;;;;;;5054778;28;20119;-90
2022/07/03 11:42:18;;;;;;;5.57;0.60;;;;;;;;;;5056266;28;20135;-95
2022/07/03 11:44:47;;;;;;;0.30;0.30;;;;;;;;;;5055257;28;20052;-89
2022/07/03 11:47:14;;;;;;;0.35;0.35;;;;;;;;;;5054896;28;20132;-91
2022/07/03 11:49:49;;;;;;;2.75;0.40;;;;;;;;;;5054967;28;20567;-91
2022/07/03 11:52:32;;;;;;;0.43;0.32;;;;;;;;;;5055156;28;20486;-92
2022/07/03 11:54:59;;;;;;;0.30;0.30;;;;;;;;;;5032075;28;20284;-93
2022/07/03 11:57:26;;;;;;;0.40;0.35;;;;;;;;;;5054920;28;20115;-94
2022/07/03 12:00:04;;;;;;;1.05;0.30;;;;;;;;;;5055190;28;20140;-89
2022/07/03 12:02:31;;;;;;;2.72;0.40;;;;;;;;;;5038186;28;20064;-90
2022/07/03 12:04:58;;;;;;;0.30;0.30;;;;;;;;;;5054776;28;20140;-91
2022/07/03 12:07:25;;;;;;;0.40;0.40;;;;;;;;;;5038481;28;20303;-90
2022/07/03 12:09:52;;;;;;;0.40;0.38;;;;;;;;;;5054403;28;20103;-91
2022/07/03 12:12:24;;;;;;;2.17;0.40;;;;;;;;;;5055543;28;20051;-90
2022/07/03 12:14:57;;;;;;;1.27;0.30;;;;;;;;;;5053963;28;20111;-92
2022/07/03 12:17:25;;;;;;;3.05;0.75;;;;;;;;;;5054141;28;20072;-84
2022/07/03 12:19:54;;;;;;;0.40;0.40;;;;;;;;;;5054133;28;20076;-90
2022/07/03 12:22:32;;;;;;;1.38;0.70;;;;;;;;;;5055219;28;20099;-91
2022/07/03 12:25:00;;;;;;;2.10;1.02;;;;;;;;;;5054061;28;20095;-88
2022/07/03 12:27:28;;;;;;;3.63;0.80;;;;;;;;;;5054162;28;20159;-90
2022/07/03 12:29:56;;;;;;;0.93;0.52;;;;;;;;;;5054113;28;20088;-93
2022/07/03 12:32:24;;;;;;;18.00;1.63;;;;;;;;;;5037040;28;20072;-92
2022/07/03 12:34:53;;;;;;;0.88;0.60;;;;;;;;;;5054186;28;20103;-92
2022/07/03 12:37:40;;;;;;;9.55;0.82;;;;;;;;;;5053948;28;20386;-92
2022/07/03 12:40:13;;;;;;;0.30;0.30;;;;;;;;;;5053477;28;20057;-90
2022/07/03 12:42:47;;;;;;;1.30;0.60;;;;;;;;;;5053417;28;20072;-86
2022/07/03 12:45:19;;;;;;;1.60;0.50;;;;;;;;;;5053539;28;20555;-92
2022/07/03 12:47:46;;;;;;;5.95;1.00;;;;;;;;;;5053641;28;20080;-90
2022/07/03 12:50:15;;;;;;;1.83;0.47;;;;;;;;;;5053825;28;20080;-90
2022/07/03 12:52:56;;;;;;;1.52;0.40;;;;;;;;;;5053811;28;20136;-86
2022/07/03 12:55:26;;;;;;;1.10;0.40;;;;;;;;;;5054950;28;20119;-91
2022/07/03 13:00:59;;;;;;;5.60;1.00;;;;;;;;;;5048344;28;20080;-93
2022/07/03 13:03:27;;;;;;;2.70;0.50;;;;;;;;;;5053468;28;20100;-92
2022/07/03 13:06:16;;;;;;;0.70;0.40;;;;;;;;;;5053533;28;20136;-90
2022/07/03 13:08:53;;;;;;;1.67;0.50;;;;;;;;;;5053148;28;20045;-89
2022/07/03 13:11:41;;;;;;;0.52;0.30;;;;;;;;;;5054220;28;20077;-91
2022/07/03 13:14:13;;;;;;;0.30;0.30;;;;;;;;;;5036510;28;20453;-90
2022/07/03 13:16:47;;;;;;;0.80;0.75;;;;;;;;;;5054089;28;20088;-95
2022/07/03 13:19:16;;;;;;;2.88;0.43;;;;;;;;;;5053071;28;20491;-93
2022/07/03 13:21:44;;;;;;;11.10;0.85;;;;;;;;;;5053037;28;20111;-90
2022/07/03 13:24:12;;;;;;;3.25;0.80;;;;;;;;;;5056184;28;20056;-90
2022/07/03 13:26:39;;;;;;;1.15;0.50;;;;;;;;;;5059127;28;20052;-95
2022/07/03 13:29:07;;;;;;;0.80;0.38;;;;;;;;;;5054057;28;20049;-89
2022/07/03 13:31:34;;;;;;;1.92;0.43;;;;;;;;;;5055418;28;20137;-91
2022/07/03 13:34:02;;;;;;;0.45;0.40;;;;;;;;;;5053337;28;20466;-91
2022/07/03 13:36:30;;;;;;;0.85;0.50;;;;;;;;;;5053434;28;20049;-94
2022/07/03 13:38:58;;;;;;;3.60;0.68;;;;;;;;;;5052909;28;20057;-92
2022/07/03 13:41:25;;;;;;;0.30;0.30;;;;;;;;;;5054354;28;20459;-92
2022/07/03 13:43:52;;;;;;;24.23;2.10;;;;;;;;;;5053968;28;20160;-87
2022/07/03 13:46:24;;;;;;;2.70;0.90;;;;;;;;;;5051983;28;20128;-89
2022/07/03 13:48:52;;;;;;;0.70;0.30;;;;;;;;;;5053904;28;20072;-91
2022/07/03 13:51:20;;;;;;;1.17;0.43;;;;;;;;;;5053600;28;20474;-91
2022/07/03 13:53:49;;;;;;;0.55;0.30;;;;;;;;;;5052850;28;20111;-91
2022/07/03 13:56:17;;;;;;;0.50;0.50;;;;;;;;;;5053067;28;20104;-90
2022/07/03 13:58:44;;;;;;;1.35;0.45;;;;;;;;;;5053920;28;20080;-92
2022/07/03 14:01:18;;;;;;;5.15;0.90;;;;;;;;;;5037374;28;20045;-86
2022/07/03 14:03:45;;;;;;;1.02;0.40;;;;;;;;;;5053393;28;20053;-93
2022/07/03 14:06:12;;;;;;;1.77;0.65;;;;;;;;;;5053581;28;20041;-92
2022/07/03 14:08:43;;;;;;;1.95;0.40;;;;;;;;;;5052898;28;20052;-89
2022/07/03 14:11:10;;;;;;;2.05;0.50;;;;;;;;;;5053606;28;20560;-88
2022/07/03 14:13:37;;;;;;;2.72;0.50;;;;;;;;;;5052998;28;20049;-89
2022/07/03 14:16:04;;;;;;;1.42;0.38;;;;;;;;;;5052395;28;20057;-93
2022/07/03 14:18:32;;;;;;;1.48;0.30;;;;;;;;;;5053922;28;20048;-90
2022/07/03 14:20:59;;;;;;;2.33;0.60;;;;;;;;;;5052450;28;20077;-91
2022/07/03 14:23:26;;;;;;;0.20;0.20;;;;;;;;;;5053813;28;20648;-93
2022/07/03 14:25:53;;;;;;;1.65;0.22;;;;;;;;;;5052669;28;20057;-88
2022/07/03 14:33:52;;;;;;;1.00;0.50;;;;;;;;;;5054402;28;20060;-89
2022/07/03 14:36:20;;;;;;;4.40;0.90;;;;;;;;;;5054026;28;20429;-90
2022/07/03 14:39:07;;;;;;;0.50;0.40;;;;;;;;;;5052477;28;20057;-93
2022/07/03 14:41:34;;;;;;;0.80;0.40;;;;;;;;;;5052290;28;20091;-92
2022/07/03 14:44:02;;;;;;;0.63;0.30;;;;;;;;;;5052290;28;20100;-92
2022/07/03 14:46:29;;;;;;;1.38;0.40;;;;;;;;;;5052457;28;20049;-92
2022/07/03 14:48:56;;;;;;;4.65;1.08;;;;;;;;;;5052599;28;20052;-88
2022/07/03 14:51:23;;;;;;;9.20;0.88;;;;;;;;;;5052694;28;20069;-86
2022/07/03 14:53:51;;;;;;;0.95;0.40;;;;;;;;;;5053509;28;20067;-90
2022/07/03 14:56:19;;;;;;;0.80;0.40;;;;;;;;;;5054752;28;20128;-94
2022/07/03 14:58:49;;;;;;;0.93;0.30;;;;;;;;;;5055716;28;20408;-93
2022/07/03 15:01:17;;;;;;;1.48;0.40;;;;;;;;;;5055956;28;20052;-92
2022/07/03 15:03:53;;;;;;;1.10;0.47;;;;;;;;;;5048148;28;20053;-91
2022/07/03 15:06:21;;;;;;;0.40;0.40;;;;;;;;;;5055853;28;20088;-95
2022/07/03 15:09:01;;;;;;;1.00;0.50;;;;;;;;;;5056160;28;20076;-92
2022/07/03 15:14:26;;;;;;;0.90;0.30;;;;;;;;;;5056816;28;20096;-92
2022/07/03 15:16:54;;;;;;;7.18;1.88;;;;;;;;;;5056894;28;20073;-93
2022/07/03 15:19:23;;;;;;;6.50;0.40;;;;;;;;;;5056206;28;20490;-93
2022/07/03 15:21:51;;;;;;;0.90;0.40;;;;;;;;;;5056417;28;20068;-92